createdAt,value
2019-04-22T00:00:08.620Z,0.00
2019-04-22T00:01:16.413Z,0.00
2019-04-22T00:02:11.268Z,0.00
2019-04-22T00:03:11.379Z,0.00
2019-04-22T00:04:13.296Z,0.00
2019-04-22T00:05:18.950Z,0.00
2019-04-22T00:06:32.539Z,0.00
2019-04-22T00:07:30.650Z,0.00
2019-04-22T00:08:36.142Z,0.00
2019-04-22T00:09:31.080Z,0.00
2019-04-22T00:10:39.226Z,0.00
2019-04-22T00:12:37.479Z,0.00
2019-04-22T00:13:40.905Z,0.00
2019-04-22T00:14:30.923Z,0.00
2019-04-22T00:15:28.071Z,0.00
2019-04-22T00:16:41.686Z,0.00
2019-04-22T00:17:38.649Z,0.00
2019-04-22T00:18:50.451Z,0.00
2019-04-22T00:19:36.180Z,0.00
2019-04-22T00:20:35.536Z,0.00
2019-04-22T00:21:33.322Z,0.00
2019-04-22T00:22:35.142Z,0.00
2019-04-22T00:23:37.340Z,0.00
2019-04-22T00:24:33.380Z,0.00
2019-04-22T00:25:34.736Z,0.00
2019-04-22T00:26:40.622Z,0.00
2019-04-22T00:27:41.303Z,0.00
2019-04-22T00:28:36.596Z,0.00
2019-04-22T00:29:52.265Z,0.00
2019-04-22T00:30:28.164Z,0.00
2019-04-22T00:31:34.715Z,0.00
2019-04-22T00:32:34.791Z,0.00
2019-04-22T00:33:31.371Z,0.00
2019-04-22T00:34:32.447Z,0.00
2019-04-22T00:35:33.203Z,0.00
2019-04-22T00:36:28.616Z,0.00
2019-04-22T00:37:35.744Z,0.00
2019-04-22T00:38:38.398Z,0.00
2019-04-22T00:39:35.938Z,0.00
2019-04-22T00:40:33.872Z,0.00
2019-04-22T00:41:35.776Z,0.00
2019-04-22T00:42:36.345Z,0.00
2019-04-22T00:43:37.530Z,0.00
2019-04-22T00:44:52.987Z,0.00
2019-04-22T00:45:33.144Z,0.00
2019-04-22T00:46:38.113Z,0.00
2019-04-22T00:47:36.465Z,0.00
2019-04-22T00:48:35.637Z,0.00
2019-04-22T00:50:30.522Z,0.00
2019-04-22T00:51:33.795Z,0.00
2019-04-22T00:52:34.670Z,0.00
2019-04-22T00:53:37.463Z,0.00
2019-04-22T00:54:42.217Z,0.00
2019-04-22T00:55:31.242Z,0.00
2019-04-22T00:56:28.305Z,0.00
2019-04-22T00:57:34.894Z,0.00
2019-04-22T00:58:30.770Z,0.00
2019-04-22T00:59:32.971Z,0.00
2019-04-22T01:00:34.158Z,0.00
2019-04-22T01:01:32.439Z,0.00
2019-04-22T01:02:37.606Z,0.00
2019-04-22T01:03:34.249Z,0.00
2019-04-22T01:04:47.582Z,0.00
2019-04-22T01:05:34.281Z,0.00
2019-04-22T01:06:35.838Z,0.00
2019-04-22T01:07:30.511Z,0.00
2019-04-22T01:08:42.674Z,0.00
2019-04-22T01:09:40.163Z,0.00
2019-04-22T01:10:33.127Z,0.00
2019-04-22T01:11:45.351Z,0.00
2019-04-22T01:12:31.687Z,0.00
2019-04-22T01:13:30.466Z,0.00
2019-04-22T01:14:37.919Z,0.00
2019-04-22T01:15:35.463Z,0.00
2019-04-22T01:16:50.461Z,0.00
2019-04-22T01:17:34.243Z,0.00
2019-04-22T01:18:32.595Z,0.00
2019-04-22T01:19:38.987Z,0.00
2019-04-22T01:21:37.117Z,0.00
2019-04-22T01:22:27.108Z,0.00
2019-04-22T01:23:27.835Z,0.00
2019-04-22T01:24:28.949Z,0.00
2019-04-22T01:25:30.567Z,0.00
2019-04-22T01:26:24.318Z,0.00
2019-04-22T01:27:26.627Z,0.00
2019-04-22T01:28:23.617Z,0.00
2019-04-22T01:29:19.710Z,0.00
2019-04-22T01:30:21.049Z,0.00
2019-04-22T01:31:15.302Z,0.00
2019-04-22T01:32:15.341Z,0.00
2019-04-22T01:33:16.042Z,0.00
2019-04-22T01:34:23.188Z,0.00
2019-04-22T01:35:22.124Z,0.00
2019-04-22T01:36:25.959Z,0.00
2019-04-22T01:37:27.099Z,0.00
2019-04-22T01:38:23.558Z,0.00
2019-04-22T01:39:33.743Z,0.00
2019-04-22T01:40:38.904Z,0.00
2019-04-22T01:41:42.007Z,0.00
2019-04-22T01:42:35.826Z,0.00
2019-04-22T01:43:49.999Z,0.00
2019-04-22T01:44:33.115Z,0.00
2019-04-22T01:45:34.657Z,0.00
2019-04-22T01:46:42.529Z,0.00
2019-04-22T01:47:40.159Z,0.00
2019-04-22T01:48:33.029Z,0.00
2019-04-22T01:49:33.913Z,0.00
2019-04-22T01:50:30.722Z,0.00
2019-04-22T01:51:45.504Z,0.00
2019-04-22T01:52:36.762Z,0.00
2019-04-22T01:53:33.718Z,0.00
2019-04-22T01:54:43.200Z,0.00
2019-04-22T01:55:36.950Z,0.00
2019-04-22T01:56:34.943Z,0.00
2019-04-22T01:57:28.861Z,0.00
2019-04-22T01:58:28.995Z,0.00
2019-04-22T01:59:28.630Z,0.00
2019-04-22T02:00:38.426Z,0.00
2019-04-22T02:01:37.413Z,0.00
2019-04-22T02:02:39.925Z,0.00
2019-04-22T02:03:42.324Z,0.00
2019-04-22T02:04:38.299Z,0.00
2019-04-22T02:05:30.052Z,0.00
2019-04-22T02:06:35.079Z,0.00
2019-04-22T02:07:34.338Z,0.00
2019-04-22T02:08:45.155Z,0.00
2019-04-22T02:09:38.368Z,0.00
2019-04-22T02:11:39.114Z,0.00
2019-04-22T02:12:34.173Z,0.00
2019-04-22T02:13:35.321Z,0.00
2019-04-22T02:14:51.066Z,0.00
2019-04-22T02:15:31.177Z,0.00
2019-04-22T02:16:34.303Z,0.00
2019-04-22T02:17:39.663Z,0.00
2019-04-22T02:19:53.157Z,0.00
2019-04-22T02:20:43.239Z,0.00
2019-04-22T02:21:38.633Z,0.00
2019-04-22T02:22:52.593Z,0.00
2019-04-22T02:24:39.850Z,0.00
2019-04-22T02:25:42.802Z,0.00
2019-04-22T02:26:38.568Z,0.00
2019-04-22T02:29:42.512Z,0.00
2019-04-22T02:30:57.163Z,0.00
2019-04-22T02:31:45.317Z,0.00
2019-04-22T02:32:48.514Z,0.00
2019-04-22T02:34:50.779Z,0.00
2019-04-22T02:36:01.879Z,0.00
2019-04-22T02:36:33.988Z,0.00
2019-04-22T02:38:57.401Z,0.00
2019-04-22T02:39:33.048Z,0.00
2019-04-22T02:40:58.435Z,0.00
2019-04-22T02:41:31.006Z,0.00
2019-04-22T02:42:42.858Z,0.00
2019-04-22T02:44:35.503Z,0.00
2019-04-22T02:45:54.298Z,0.00
2019-04-22T02:47:04.345Z,0.00
2019-04-22T02:47:34.268Z,0.00
2019-04-22T02:48:53.753Z,0.00
2019-04-22T02:50:37.694Z,0.00
2019-04-22T02:51:32.607Z,0.00
2019-04-22T02:52:39.457Z,0.00
2019-04-22T02:54:15.321Z,0.00
2019-04-22T02:54:58.532Z,0.00
2019-04-22T02:55:40.820Z,0.00
2019-04-22T02:57:49.399Z,0.00
2019-04-22T02:59:39.717Z,0.00
2019-04-22T03:00:44.438Z,0.00
2019-04-22T03:01:44.758Z,0.00
2019-04-22T03:04:37.358Z,0.00
2019-04-22T03:05:47.070Z,0.00
2019-04-22T03:07:40.955Z,0.00
2019-04-22T03:08:43.346Z,0.00
2019-04-22T03:10:48.793Z,0.00
2019-04-22T03:12:38.095Z,0.00
2019-04-22T03:13:51.086Z,0.00
2019-04-22T03:14:51.711Z,0.00
2019-04-22T03:15:48.416Z,0.00
2019-04-22T03:16:41.204Z,0.00
2019-04-22T03:18:53.695Z,0.00
2019-04-22T03:19:50.582Z,0.00
2019-04-22T03:20:41.580Z,0.00
2019-04-22T03:22:34.475Z,0.00
2019-04-22T03:26:00.441Z,0.00
2019-04-22T03:27:36.297Z,0.00
2019-04-22T03:28:47.823Z,0.00
2019-04-22T03:29:44.943Z,4.00
2019-04-22T03:35:41.792Z,4.00
2019-04-22T03:37:48.825Z,8.00
2019-04-22T03:39:01.438Z,8.00
2019-04-22T03:42:00.551Z,12.00
2019-04-22T03:42:48.559Z,16.00
2019-04-22T03:43:56.409Z,20.00
2019-04-22T03:44:43.793Z,24.00
2019-04-22T03:46:52.850Z,32.00
2019-04-22T03:48:47.559Z,44.00
2019-04-22T03:49:49.948Z,52.00
2019-04-22T03:51:01.864Z,60.00
2019-04-22T03:51:45.727Z,72.00
2019-04-22T03:53:38.482Z,92.00
2019-04-22T03:55:41.211Z,124.00
2019-04-22T03:57:48.828Z,160.00
2019-04-22T03:58:36.785Z,180.00
2019-04-22T03:59:42.147Z,204.00
2019-04-22T04:01:45.772Z,260.00
2019-04-22T04:02:45.868Z,288.00
2019-04-22T04:03:39.535Z,320.00
2019-04-22T04:04:39.419Z,352.00
2019-04-22T04:05:49.679Z,388.00
2019-04-22T04:06:50.593Z,424.00
2019-04-22T04:09:42.520Z,548.00
2019-04-22T04:11:52.085Z,644.00
2019-04-22T04:13:41.478Z,740.00
2019-04-22T04:14:46.315Z,792.00
2019-04-22T04:15:34.682Z,848.00
2019-04-22T04:16:52.159Z,904.00
2019-04-22T04:17:50.480Z,960.00
2019-04-22T04:18:46.731Z,1012.00
2019-04-22T04:19:45.998Z,1072.00
2019-04-22T04:21:06.285Z,1128.00
2019-04-22T04:21:41.020Z,1192.00
2019-04-22T04:23:05.328Z,1248.00
2019-04-22T04:25:05.483Z,1372.00
2019-04-22T04:28:05.288Z,1568.00
2019-04-22T04:29:54.463Z,1692.00
2019-04-22T04:30:42.559Z,1748.00
2019-04-22T04:31:51.297Z,1820.00
2019-04-22T04:33:38.792Z,1972.00
2019-04-22T04:36:44.531Z,2188.00
2019-04-22T04:37:46.736Z,2256.00
2019-04-22T04:39:51.091Z,2400.00
2019-04-22T04:41:42.075Z,2500.00
2019-04-22T04:42:51.471Z,2560.00
2019-04-22T04:43:50.564Z,2612.00
2019-04-22T04:46:47.403Z,2844.00
2019-04-22T04:48:51.193Z,2952.00
2019-04-22T04:49:48.039Z,3028.00
2019-04-22T04:50:38.245Z,3168.00
2019-04-22T04:51:43.191Z,3192.00
2019-04-22T04:52:50.820Z,3240.00
2019-04-22T04:53:31.950Z,3268.00
2019-04-22T04:54:56.650Z,3244.00
2019-04-22T04:55:35.116Z,3296.00
2019-04-22T04:58:56.532Z,3492.00
2019-04-22T05:00:06.620Z,3556.00
2019-04-22T05:00:52.475Z,3588.00
2019-04-22T05:02:48.902Z,3940.00
2019-04-22T05:04:56.224Z,4384.00
2019-04-22T05:06:43.006Z,4560.00
2019-04-22T05:07:40.895Z,4648.00
2019-04-22T05:09:06.532Z,4716.00
2019-04-22T05:10:50.750Z,4916.00
2019-04-22T05:11:45.200Z,4972.00
2019-04-22T05:14:32.322Z,5204.00
2019-04-22T05:16:41.007Z,5436.00
2019-04-22T05:18:39.348Z,5600.00
2019-04-22T05:19:33.201Z,5668.00
2019-04-22T05:20:53.488Z,5736.00
2019-04-22T05:21:29.640Z,5792.00
2019-04-22T05:22:35.707Z,5816.00
2019-04-22T05:23:41.960Z,5856.00
2019-04-22T05:24:35.063Z,5904.00
2019-04-22T05:25:27.026Z,5936.00
2019-04-22T05:26:57.054Z,5964.00
2019-04-22T05:27:39.713Z,6024.00
2019-04-22T05:28:33.790Z,6092.00
2019-04-22T05:29:43.473Z,6180.00
2019-04-22T05:30:32.038Z,6260.00
2019-04-22T05:31:38.654Z,6320.00
2019-04-22T05:32:40.096Z,6360.00
2019-04-22T05:33:36.054Z,6456.00
2019-04-22T05:34:35.558Z,6544.00
2019-04-22T05:35:35.862Z,6600.00
2019-04-22T05:36:32.787Z,6668.00
2019-04-22T05:37:34.147Z,6704.00
2019-04-22T05:39:28.519Z,6732.00
2019-04-22T05:40:32.525Z,6776.00
2019-04-22T05:41:35.287Z,6728.00
2019-04-22T05:42:31.719Z,6680.00
2019-04-22T05:43:34.335Z,6688.00
2019-04-22T05:44:50.000Z,6732.00
2019-04-22T05:45:43.285Z,6756.00
2019-04-22T05:46:28.347Z,6792.00
2019-04-22T05:47:32.379Z,6820.00
2019-04-22T05:48:34.124Z,6820.00
2019-04-22T05:49:29.571Z,6868.00
2019-04-22T05:50:26.964Z,6936.00
2019-04-22T05:51:38.201Z,6980.00
2019-04-22T05:52:48.032Z,7000.00
2019-04-22T05:53:37.243Z,7028.00
2019-04-22T05:54:33.272Z,7084.00
2019-04-22T05:55:35.983Z,7116.00
2019-04-22T05:56:39.527Z,7144.00
2019-04-22T05:57:35.648Z,7152.00
2019-04-22T05:58:38.128Z,7184.00
2019-04-22T05:59:36.091Z,7224.00
2019-04-22T06:00:40.398Z,7280.00
2019-04-22T06:03:35.296Z,7424.00
2019-04-22T06:04:29.415Z,7480.00
2019-04-22T06:06:29.285Z,7540.00
2019-04-22T06:07:31.333Z,7624.00
2019-04-22T06:08:29.224Z,7808.00
2019-04-22T06:09:30.197Z,7976.00
2019-04-22T06:11:51.526Z,8320.00
2019-04-22T06:12:29.228Z,8656.00
2019-04-22T06:13:28.084Z,8652.00
2019-04-22T06:14:22.955Z,8592.00
2019-04-22T06:15:28.813Z,8588.00
2019-04-22T06:16:31.010Z,8428.00
2019-04-22T06:17:54.818Z,8344.00
2019-04-22T06:18:33.411Z,8476.00
2019-04-22T06:19:31.547Z,8644.00
2019-04-22T06:20:32.650Z,8492.00
2019-04-22T06:21:36.085Z,8392.00
2019-04-22T06:22:43.234Z,8412.00
2019-04-22T06:23:40.262Z,8448.00
2019-04-22T06:24:49.077Z,8560.00
2019-04-22T06:25:49.539Z,8624.00
2019-04-22T06:26:37.951Z,8668.00
2019-04-22T06:27:33.041Z,8772.00
2019-04-22T06:28:40.753Z,8856.00
2019-04-22T06:29:30.204Z,8820.00
2019-04-22T06:30:39.234Z,8796.00
2019-04-22T06:33:34.677Z,8920.00
2019-04-22T06:35:36.400Z,8988.00
2019-04-22T06:36:37.534Z,8988.00
2019-04-22T06:37:33.653Z,9024.00
2019-04-22T06:38:34.073Z,9048.00
2019-04-22T06:39:44.768Z,9104.00
2019-04-22T06:40:31.694Z,9164.00
2019-04-22T06:41:38.067Z,9228.00
2019-04-22T06:42:36.151Z,9304.00
2019-04-22T06:43:35.564Z,9336.00
2019-04-22T06:44:29.881Z,9324.00
2019-04-22T06:45:29.240Z,9356.00
2019-04-22T06:46:34.617Z,9440.00
2019-04-22T06:47:44.081Z,9548.00
2019-04-22T06:48:33.271Z,9652.00
2019-04-22T06:49:35.520Z,9704.00
2019-04-22T06:50:37.565Z,9728.00
2019-04-22T06:51:32.848Z,9772.00
2019-04-22T06:52:28.159Z,9884.00
2019-04-22T06:53:34.429Z,9972.00
2019-04-22T06:54:33.013Z,10020.00
2019-04-22T06:55:47.015Z,10072.00
2019-04-22T06:56:27.454Z,10172.00
2019-04-22T06:57:30.694Z,10304.00
2019-04-22T06:58:30.306Z,10392.00
2019-04-22T06:59:33.003Z,10516.00
2019-04-22T07:00:32.454Z,10700.00
2019-04-22T07:01:35.697Z,10880.00
2019-04-22T07:04:38.267Z,11336.00
2019-04-22T07:05:37.734Z,11548.00
2019-04-22T07:06:35.064Z,11692.00
2019-04-22T07:07:34.553Z,11928.00
2019-04-22T07:09:34.969Z,12288.00
2019-04-22T07:10:35.261Z,12488.00
2019-04-22T07:11:29.603Z,12664.00
2019-04-22T07:12:30.567Z,12844.00
2019-04-22T07:14:28.579Z,14012.00
2019-04-22T07:17:38.082Z,14756.00
2019-04-22T07:19:33.640Z,15544.00
2019-04-22T07:21:30.849Z,16104.00
2019-04-22T07:22:49.553Z,16396.00
2019-04-22T07:23:45.700Z,16620.00
2019-04-22T07:24:43.824Z,16748.00
2019-04-22T07:25:23.395Z,17096.00
2019-04-22T07:26:31.868Z,17468.00
2019-04-22T07:27:45.812Z,18080.00
2019-04-22T07:28:22.911Z,18624.00
2019-04-22T07:29:33.790Z,19296.00
2019-04-22T07:30:31.372Z,18976.00
2019-04-22T07:31:49.790Z,18480.00
2019-04-22T07:32:53.785Z,19072.00
2019-04-22T07:35:44.732Z,20256.00
2019-04-22T07:36:47.154Z,20576.00
2019-04-22T07:37:36.788Z,20800.00
2019-04-22T07:39:35.146Z,22176.00
2019-04-22T07:40:34.185Z,22592.00
2019-04-22T07:41:34.484Z,22496.00
2019-04-22T07:42:31.082Z,21824.00
2019-04-22T07:43:51.649Z,20896.00
2019-04-22T07:44:43.246Z,20192.00
2019-04-22T07:45:36.164Z,20512.00
2019-04-22T07:46:39.015Z,21184.00
2019-04-22T07:47:38.403Z,21568.00
2019-04-22T07:48:43.328Z,21824.00
2019-04-22T07:50:43.723Z,22944.00
2019-04-22T07:51:32.766Z,24032.00
2019-04-22T07:52:35.267Z,24544.00
2019-04-22T07:53:32.183Z,25664.00
2019-04-22T07:54:31.657Z,26496.00
2019-04-22T07:55:32.527Z,26432.00
2019-04-22T07:56:29.274Z,27104.00
2019-04-22T07:57:32.794Z,28192.00
2019-04-22T07:58:29.379Z,28096.00
2019-04-22T07:59:37.183Z,27136.00
2019-04-22T08:00:36.903Z,28096.00
2019-04-22T08:01:30.580Z,28576.00
2019-04-22T08:02:37.397Z,28608.00
2019-04-22T08:03:38.180Z,28736.00
2019-04-22T08:04:50.079Z,27136.00
2019-04-22T08:05:33.352Z,25696.00
2019-04-22T08:06:31.392Z,26176.00
2019-04-22T08:07:52.079Z,28416.00
2019-04-22T08:08:28.771Z,28736.00
2019-04-22T08:09:35.629Z,27936.00
2019-04-22T08:11:50.015Z,26272.00
2019-04-22T08:12:51.937Z,25056.00
2019-04-22T08:13:41.059Z,24576.00
2019-04-22T08:14:34.581Z,24768.00
2019-04-22T08:15:33.390Z,24736.00
2019-04-22T08:16:28.444Z,24320.00
2019-04-22T08:17:52.096Z,24384.00
2019-04-22T08:18:37.441Z,24448.00
2019-04-22T08:19:37.390Z,23776.00
2019-04-22T08:20:34.619Z,22272.00
2019-04-22T08:21:29.855Z,20736.00
2019-04-22T08:22:20.700Z,19424.00
2019-04-22T08:23:35.481Z,18048.00
2019-04-22T08:24:35.932Z,17084.00
2019-04-22T08:25:31.476Z,16812.00
2019-04-22T08:26:32.239Z,16512.00
2019-04-22T08:27:30.388Z,16348.00
2019-04-22T08:29:40.854Z,15984.00
2019-04-22T08:30:33.753Z,15916.00
2019-04-22T08:31:35.965Z,15796.00
2019-04-22T08:32:37.585Z,15920.00
2019-04-22T08:33:35.358Z,15952.00
2019-04-22T08:34:29.871Z,15796.00
2019-04-22T08:35:52.526Z,15804.00
2019-04-22T08:36:31.730Z,15932.00
2019-04-22T08:38:35.720Z,16072.00
2019-04-22T08:39:33.173Z,16172.00
2019-04-22T08:40:40.405Z,16068.00
2019-04-22T08:41:34.940Z,15988.00
2019-04-22T08:42:42.925Z,16124.00
2019-04-22T08:43:36.399Z,16244.00
2019-04-22T08:44:54.850Z,16112.00
2019-04-22T08:45:31.808Z,16128.00
2019-04-22T08:48:30.828Z,15976.00
2019-04-22T08:49:34.533Z,15968.00
2019-04-22T08:50:33.324Z,15996.00
2019-04-22T08:51:37.715Z,16248.00
2019-04-22T08:52:35.402Z,16560.00
2019-04-22T08:53:37.549Z,16944.00
2019-04-22T08:54:51.237Z,17284.00
2019-04-22T08:56:37.652Z,18944.00
2019-04-22T08:57:57.119Z,19136.00
2019-04-22T08:58:31.734Z,19872.00
2019-04-22T08:59:33.726Z,21504.00
2019-04-22T09:00:39.647Z,22528.00
2019-04-22T09:01:46.998Z,22208.00
2019-04-22T09:02:37.055Z,22016.00
2019-04-22T09:03:34.990Z,23776.00
2019-04-22T09:04:31.249Z,23232.00
2019-04-22T09:07:34.606Z,24800.00
2019-04-22T09:08:34.418Z,24960.00
2019-04-22T09:09:33.922Z,26464.00
2019-04-22T09:10:37.844Z,29056.00
2019-04-22T09:11:41.760Z,33216.00
2019-04-22T09:12:49.607Z,37696.00
2019-04-22T09:13:35.586Z,45216.00
2019-04-22T09:14:37.876Z,47840.00
2019-04-22T09:15:34.406Z,47648.00
2019-04-22T09:16:39.385Z,43712.00
2019-04-22T09:17:35.017Z,38976.00
2019-04-22T09:18:35.126Z,34688.00
2019-04-22T09:19:30.150Z,30560.00
2019-04-22T09:20:32.574Z,28896.00
2019-04-22T09:21:32.822Z,28064.00
2019-04-22T09:22:50.402Z,26720.00
2019-04-22T09:23:38.449Z,27776.00
2019-04-22T09:24:35.782Z,28544.00
2019-04-22T09:25:34.204Z,29472.00
2019-04-22T09:26:36.167Z,32576.00
2019-04-22T09:27:38.487Z,33120.00
2019-04-22T09:28:37.800Z,32480.00
2019-04-22T09:29:39.821Z,31712.00
2019-04-22T09:30:41.563Z,29728.00
2019-04-22T09:31:42.285Z,28768.00
2019-04-22T09:32:32.782Z,28608.00
2019-04-22T09:33:32.108Z,29792.00
2019-04-22T09:34:38.280Z,33120.00
2019-04-22T09:35:37.532Z,33696.00
2019-04-22T09:36:52.260Z,35264.00
2019-04-22T09:37:49.913Z,37344.00
2019-04-22T09:38:38.218Z,36256.00
2019-04-22T09:39:34.299Z,35008.00
2019-04-22T09:40:36.211Z,38112.00
2019-04-22T09:41:35.085Z,39456.00
2019-04-22T09:42:39.601Z,37824.00
2019-04-22T09:43:41.023Z,39744.00
2019-04-22T09:44:36.270Z,40224.00
2019-04-22T09:45:30.406Z,38432.00
2019-04-22T09:46:36.147Z,37440.00
2019-04-22T09:47:36.061Z,39104.00
2019-04-22T09:48:37.534Z,41952.00
2019-04-22T09:49:36.595Z,43040.00
2019-04-22T09:50:38.545Z,40320.00
2019-04-22T09:51:32.226Z,39872.00
2019-04-22T09:52:37.517Z,40800.00
2019-04-22T09:53:43.894Z,40896.00
2019-04-22T09:54:36.766Z,40640.00
2019-04-22T09:55:28.481Z,40928.00
2019-04-22T09:56:37.367Z,40288.00
2019-04-22T09:57:33.895Z,40320.00
2019-04-22T09:58:39.856Z,42240.00
2019-04-22T09:59:34.962Z,44256.00
2019-04-22T10:00:38.061Z,45024.00
2019-04-22T10:01:58.879Z,47936.00
2019-04-22T10:03:40.944Z,52256.00
2019-04-22T10:04:34.973Z,52640.00
2019-04-22T10:05:32.876Z,57696.00
2019-04-22T10:06:42.291Z,63872.00
2019-04-22T10:07:43.218Z,64320.00
2019-04-22T10:08:42.204Z,64480.00
2019-04-22T10:10:35.452Z,67040.00
2019-04-22T10:11:52.354Z,68096.00
2019-04-22T10:12:36.679Z,70528.00
2019-04-22T10:13:34.553Z,72480.00
2019-04-22T10:14:31.010Z,74080.00
2019-04-22T10:15:33.362Z,78912.00
2019-04-22T10:16:37.142Z,81664.00
2019-04-22T10:17:32.165Z,84000.00
2019-04-22T10:18:32.452Z,88544.00
2019-04-22T10:19:37.720Z,90112.00
2019-04-22T10:20:36.263Z,88096.00
2019-04-22T10:21:40.682Z,89120.00
2019-04-22T10:22:41.048Z,85600.00
2019-04-22T10:23:31.320Z,94112.00
2019-04-22T10:24:36.937Z,102496.00
2019-04-22T10:25:36.404Z,104960.00
2019-04-22T10:26:43.895Z,108160.00
2019-04-22T10:27:32.711Z,106208.00
2019-04-22T10:28:39.983Z,100896.00
2019-04-22T10:29:35.312Z,106016.00
2019-04-22T10:30:43.936Z,111104.00
2019-04-22T10:31:38.207Z,103744.00
2019-04-22T10:32:33.427Z,106208.00
2019-04-22T10:33:25.783Z,108768.00
2019-04-22T10:34:20.388Z,108000.00
2019-04-22T10:35:14.384Z,107488.00
2019-04-22T10:36:09.802Z,103200.00
2019-04-22T10:37:11.705Z,101248.00
2019-04-22T10:38:10.212Z,105888.00
2019-04-22T10:39:08.736Z,109472.00
2019-04-22T10:40:11.300Z,109952.00
2019-04-22T10:41:10.235Z,107328.00
2019-04-22T10:42:09.124Z,108256.00
2019-04-22T10:43:09.579Z,109824.00
2019-04-22T10:44:08.935Z,108608.00
2019-04-22T10:45:10.023Z,108800.00
2019-04-22T10:46:10.350Z,107712.00
2019-04-22T10:47:09.777Z,107296.00
2019-04-22T10:48:10.452Z,110784.00
2019-04-22T10:49:10.355Z,105728.00
2019-04-22T10:50:10.106Z,107072.00
2019-04-22T10:51:08.902Z,109952.00
2019-04-22T10:52:08.950Z,108864.00
2019-04-22T10:53:08.935Z,106368.00
2019-04-22T10:54:09.622Z,105760.00
2019-04-22T10:55:09.770Z,107168.00
2019-04-22T10:56:09.310Z,100896.00
2019-04-22T10:57:09.023Z,99328.00
2019-04-22T10:58:09.002Z,103552.00
2019-04-22T10:59:09.022Z,105216.00
2019-04-22T11:00:09.260Z,107680.00
2019-04-22T11:01:09.618Z,109056.00
2019-04-22T11:02:09.772Z,111200.00
2019-04-22T11:03:09.078Z,111904.00
2019-04-22T11:04:11.117Z,100928.00
2019-04-22T11:05:10.316Z,100192.00
2019-04-22T11:06:09.697Z,107520.00
2019-04-22T11:07:12.777Z,102720.00
2019-04-22T11:08:10.226Z,103456.00
2019-04-22T11:09:10.567Z,106240.00
2019-04-22T11:10:32.373Z,107744.00
2019-04-22T11:11:23.174Z,104864.00
2019-04-22T11:12:15.424Z,108640.00
2019-04-22T11:13:10.782Z,107232.00
2019-04-22T11:14:10.563Z,108512.00
2019-04-22T11:15:09.819Z,110144.00
2019-04-22T11:16:09.732Z,106208.00
2019-04-22T11:17:09.314Z,108576.00
2019-04-22T11:18:09.518Z,109312.00
2019-04-22T11:19:09.811Z,108992.00
2019-04-22T11:20:09.329Z,106048.00
2019-04-22T11:21:09.725Z,102688.00
2019-04-22T11:22:18.103Z,112416.00
2019-04-22T11:23:10.779Z,112832.00
2019-04-22T11:24:10.571Z,110144.00
2019-04-22T11:25:09.806Z,103680.00
2019-04-22T11:26:10.098Z,108768.00
2019-04-22T11:27:10.714Z,110048.00
2019-04-22T11:28:09.750Z,107424.00
2019-04-22T11:29:09.965Z,112032.00
2019-04-22T11:30:09.490Z,114368.00
2019-04-22T11:31:10.480Z,108896.00
2019-04-22T11:32:10.512Z,104448.00
2019-04-22T11:33:09.537Z,102976.00
2019-04-22T11:34:10.942Z,108448.00
2019-04-22T11:35:09.881Z,113248.00
2019-04-22T11:36:10.144Z,109536.00
2019-04-22T11:37:10.239Z,114912.00
2019-04-22T11:38:10.780Z,110528.00
2019-04-22T11:39:11.616Z,111104.00
2019-04-22T11:40:18.963Z,120384.00
2019-04-22T11:41:09.654Z,116128.00
2019-04-22T11:42:10.029Z,113632.00
2019-04-22T11:43:10.264Z,118592.00
2019-04-22T11:44:11.475Z,123808.00
2019-04-22T11:45:10.912Z,119680.00
2019-04-22T11:46:09.739Z,121120.00
2019-04-22T11:47:09.777Z,120000.00
2019-04-22T11:48:11.054Z,121984.00
2019-04-22T11:49:09.945Z,122688.00
2019-04-22T11:50:10.306Z,118784.00
2019-04-22T11:51:09.876Z,113632.00
2019-04-22T11:52:12.831Z,113728.00
2019-04-22T11:53:10.938Z,109344.00
2019-04-22T11:54:10.609Z,114208.00
2019-04-22T11:55:10.897Z,111808.00
2019-04-22T11:56:11.127Z,115520.00
2019-04-22T11:57:10.748Z,119776.00
2019-04-22T11:58:10.637Z,123808.00
2019-04-22T11:59:10.899Z,119936.00
2019-04-22T12:00:09.937Z,119200.00
2019-04-22T12:01:10.764Z,107424.00
2019-04-22T12:02:11.332Z,100960.00
2019-04-22T12:03:10.004Z,112992.00
2019-04-22T12:04:11.762Z,118592.00
2019-04-22T12:05:10.115Z,121024.00
2019-04-22T12:06:10.277Z,118912.00
2019-04-22T12:07:10.932Z,124352.00
2019-04-22T12:08:11.258Z,123680.00
2019-04-22T12:09:10.172Z,114592.00
2019-04-22T12:10:17.899Z,115424.00
2019-04-22T12:11:11.646Z,114304.00
2019-04-22T12:12:10.123Z,114400.00
2019-04-22T12:13:10.329Z,108736.00
2019-04-22T12:14:10.135Z,108384.00
2019-04-22T12:15:10.680Z,115680.00
2019-04-22T12:16:11.523Z,116160.00
2019-04-22T12:17:11.334Z,116256.00
2019-04-22T12:18:11.206Z,118112.00
2019-04-22T12:19:11.340Z,119328.00
2019-04-22T12:20:12.514Z,120992.00
2019-04-22T12:21:10.938Z,115232.00
2019-04-22T12:22:11.069Z,109536.00
2019-04-22T12:23:11.205Z,113280.00
2019-04-22T12:24:10.916Z,113152.00
2019-04-22T12:25:10.595Z,119360.00
2019-04-22T12:26:15.055Z,118880.00
2019-04-22T12:27:10.575Z,115456.00
2019-04-22T12:28:11.011Z,116512.00
2019-04-22T12:29:11.060Z,110496.00
2019-04-22T12:30:11.192Z,108960.00
2019-04-22T12:31:11.268Z,112928.00
2019-04-22T12:32:11.598Z,110688.00
2019-04-22T12:33:11.694Z,112384.00
2019-04-22T12:34:11.194Z,112960.00
2019-04-22T12:35:11.615Z,117216.00
2019-04-22T12:36:10.925Z,116064.00
2019-04-22T12:37:14.128Z,113600.00
2019-04-22T12:38:12.738Z,118112.00
2019-04-22T12:39:11.568Z,115200.00
2019-04-22T12:40:10.756Z,110432.00
2019-04-22T12:41:12.087Z,110048.00
2019-04-22T12:42:11.239Z,110656.00
2019-04-22T12:43:12.343Z,113760.00
2019-04-22T12:44:11.672Z,113152.00
2019-04-22T12:45:12.058Z,112736.00
2019-04-22T12:46:12.074Z,109184.00
2019-04-22T12:47:12.751Z,108544.00
2019-04-22T12:48:10.621Z,106944.00
2019-04-22T12:49:12.067Z,105088.00
2019-04-22T12:50:18.617Z,107104.00
2019-04-22T12:51:11.063Z,107712.00
2019-04-22T12:52:23.470Z,107904.00
2019-04-22T12:53:14.963Z,107008.00
2019-04-22T12:54:10.978Z,103072.00
2019-04-22T12:55:12.014Z,103648.00
2019-04-22T12:56:10.999Z,103840.00
2019-04-22T12:57:10.765Z,106176.00
2019-04-22T12:58:11.822Z,105440.00
2019-04-22T12:59:11.764Z,104192.00
2019-04-22T13:00:11.576Z,103008.00
2019-04-22T13:01:10.998Z,103680.00
2019-04-22T13:02:11.213Z,99136.00
2019-04-22T13:03:11.035Z,96704.00
2019-04-22T13:04:14.206Z,99424.00
2019-04-22T13:05:12.320Z,104288.00
2019-04-22T13:06:11.996Z,105632.00
2019-04-22T13:07:11.569Z,102976.00
2019-04-22T13:08:11.646Z,103776.00
2019-04-22T13:09:12.496Z,102272.00
2019-04-22T13:10:10.918Z,101600.00
2019-04-22T13:11:14.458Z,98944.00
2019-04-22T13:12:11.119Z,97792.00
2019-04-22T13:13:11.301Z,99200.00
2019-04-22T13:14:11.004Z,98176.00
2019-04-22T13:15:11.777Z,95616.00
2019-04-22T13:16:13.388Z,92192.00
2019-04-22T13:17:12.209Z,91872.00
2019-04-22T13:18:20.486Z,96000.00
2019-04-22T13:19:13.217Z,97088.00
2019-04-22T13:20:14.403Z,96544.00
2019-04-22T13:21:11.071Z,90112.00
2019-04-22T13:22:12.424Z,87904.00
2019-04-22T13:23:11.596Z,93760.00
2019-04-22T13:24:11.102Z,93568.00
2019-04-22T13:25:12.412Z,93632.00
2019-04-22T13:26:12.757Z,94592.00
2019-04-22T13:27:11.137Z,94080.00
2019-04-22T13:28:11.371Z,92864.00
2019-04-22T13:29:12.769Z,95232.00
2019-04-22T13:30:12.404Z,96352.00
2019-04-22T13:31:11.951Z,96640.00
2019-04-22T13:32:13.191Z,96032.00
2019-04-22T13:33:12.526Z,95296.00
2019-04-22T13:34:21.392Z,94144.00
2019-04-22T13:35:12.709Z,96928.00
2019-04-22T13:36:12.043Z,94368.00
2019-04-22T13:37:12.746Z,94080.00
2019-04-22T13:38:11.282Z,96896.00
2019-04-22T13:39:11.379Z,92704.00
2019-04-22T13:40:12.531Z,91360.00
2019-04-22T13:41:24.022Z,89760.00